Time;durP1;ratioP1;P1;durP2;ratioP2;P2;SDS_P1;SDS_P2;PMS_P1;PMS_P2;Temp;Humidity;BMP_temperature;BMP_pressure;BME280_temperature;BME280_humidity;BME280_pressure;Samples;Min_cycle;Max_cycle;Signal;HPM_P1;HPM_P2
2023/06/07 00:01:25;;;;;;;15.60;4.15;;;11.20;99.90;;;;;;5071679;28;20117;-85
2023/06/07 00:03:52;;;;;;;14.50;4.35;;;11.20;99.90;;;;;;5065842;28;20043;-84
2023/06/07 00:06:19;;;;;;;10.57;4.05;;;11.20;99.90;;;;;;5091775;28;20041;-84
2023/06/07 00:08:46;;;;;;;16.38;4.00;;;11.20;99.90;;;;;;5074721;28;20040;-84
2023/06/07 00:11:12;;;;;;;11.60;4.25;;;11.20;99.90;;;;;;5074359;28;20816;-84
2023/06/07 00:13:39;;;;;;;15.40;4.28;;;11.20;99.90;;;;;;5057495;28;20041;-84
2023/06/07 00:16:06;;;;;;;12.85;3.88;;;11.20;99.90;;;;;;5037712;28;20080;-84
2023/06/07 00:18:33;;;;;;;15.52;4.10;;;11.20;99.90;;;;;;5054761;28;20076;-84
2023/06/07 00:21:00;;;;;;;9.73;3.55;;;11.20;99.90;;;;;;5054093;28;20045;-84
2023/06/07 00:23:28;;;;;;;10.63;3.70;;;11.10;99.90;;;;;;5087747;28;20049;-84
2023/06/07 00:25:56;;;;;;;14.38;3.80;;;11.10;99.90;;;;;;5054615;28;20051;-85
2023/06/07 00:28:23;;;;;;;15.10;4.20;;;11.10;99.90;;;;;;5038267;28;20094;-84
2023/06/07 00:30:50;;;;;;;14.02;4.30;;;11.10;99.90;;;;;;5054449;28;20036;-84
2023/06/07 00:33:17;;;;;;;16.30;3.88;;;11.10;99.90;;;;;;5038020;28;20048;-84
2023/06/07 00:35:43;;;;;;;13.40;3.78;;;11.10;99.90;;;;;;5054631;28;20043;-84
2023/06/07 00:38:10;;;;;;;15.73;3.92;;;11.10;99.90;;;;;;5090591;28;20044;-84
2023/06/07 00:40:37;;;;;;;12.88;3.33;;;11.10;99.90;;;;;;5074183;28;20051;-84
2023/06/07 00:43:03;;;;;;;10.63;3.47;;;11.10;99.90;;;;;;5073776;28;20040;-84
2023/06/07 00:45:30;;;;;;;13.65;3.90;;;11.10;99.90;;;;;;5090943;28;20049;-85
2023/06/07 00:47:57;;;;;;;13.52;4.05;;;11.10;99.90;;;;;;5073909;28;20063;-84
2023/06/07 00:50:24;;;;;;;14.35;4.05;;;11.10;99.90;;;;;;5090383;28;20123;-84
2023/06/07 00:52:52;;;;;;;7.80;3.90;;;11.10;99.90;;;;;;5073788;28;20044;-84
2023/06/07 00:55:18;;;;;;;11.13;4.07;;;11.10;99.90;;;;;;5073534;28;20043;-84
2023/06/07 00:57:45;;;;;;;11.70;3.90;;;11.10;99.90;;;;;;5074320;28;20037;-84
2023/06/07 01:00:13;;;;;;;15.18;4.70;;;11.10;99.90;;;;;;5073639;28;20033;-84
2023/06/07 01:02:40;;;;;;;12.70;4.53;;;11.10;99.90;;;;;;5090512;28;20084;-84
2023/06/07 01:05:07;;;;;;;18.77;5.10;;;11.10;99.90;;;;;;5070066;28;20049;-84
2023/06/07 01:07:34;;;;;;;14.57;5.03;;;11.00;99.90;;;;;;5053534;28;20047;-84
2023/06/07 01:10:02;;;;;;;15.13;4.22;;;11.10;99.90;;;;;;5053325;28;20037;-84
2023/06/07 01:12:30;;;;;;;19.88;4.60;;;11.10;99.90;;;;;;5037587;28;20040;-84
2023/06/07 01:14:57;;;;;;;14.15;4.40;;;11.00;99.90;;;;;;5037346;28;20040;-85
2023/06/07 01:17:28;;;;;;;18.45;5.03;;;11.00;99.90;;;;;;5070569;28;20036;-84
2023/06/07 01:19:58;;;;;;;13.57;4.45;;;11.00;99.90;;;;;;5074738;28;20516;-85
2023/06/07 01:22:29;;;;;;;11.05;4.00;;;11.00;99.90;;;;;;5073374;28;20702;-85
2023/06/07 01:24:56;;;;;;;15.95;3.92;;;11.00;99.90;;;;;;5106421;28;20053;-85
2023/06/07 01:27:27;;;;;;;13.77;4.20;;;10.90;99.90;;;;;;5089747;28;20136;-84
2023/06/07 01:29:55;;;;;;;12.82;3.72;;;11.00;99.90;;;;;;5074176;28;20094;-84
2023/06/07 01:32:23;;;;;;;12.25;3.83;;;10.90;99.90;;;;;;5072942;28;20041;-84
2023/06/07 01:34:51;;;;;;;16.05;3.97;;;10.90;99.90;;;;;;5090145;28;20036;-84
2023/06/07 01:37:20;;;;;;;15.77;3.95;;;10.90;99.90;;;;;;5061589;28;20044;-84
2023/06/07 01:39:49;;;;;;;13.23;3.83;;;10.80;99.90;;;;;;5086660;28;20053;-84
2023/06/07 01:42:17;;;;;;;19.10;3.60;;;10.80;99.90;;;;;;5053385;28;20041;-84
2023/06/07 01:44:46;;;;;;;14.30;3.70;;;10.80;99.90;;;;;;5053315;28;20080;-84
2023/06/07 01:47:14;;;;;;;13.52;4.05;;;10.70;99.90;;;;;;5076915;28;20040;-84
2023/06/07 01:49:42;;;;;;;17.85;4.28;;;10.70;99.90;;;;;;5073609;28;20033;-85
2023/06/07 01:52:08;;;;;;;18.98;3.88;;;10.70;99.90;;;;;;5073193;28;20040;-84
2023/06/07 01:54:36;;;;;;;15.15;4.20;;;10.70;99.90;;;;;;5056719;28;20039;-84
2023/06/07 01:57:05;;;;;;;17.30;4.03;;;10.70;99.90;;;;;;5103358;28;20048;-84
2023/06/07 01:59:45;;;;;;;18.85;4.25;;;10.70;99.90;;;;;;5073942;28;20036;-85
2023/06/07 02:02:58;;;;;;;12.20;3.75;;;10.70;99.90;;;;;;5089218;28;20044;-84
2023/06/07 02:05:36;;;;;;;14.02;4.25;;;10.70;99.90;;;;;;5051323;28;20040;-84
2023/06/07 02:08:08;;;;;;;12.70;3.90;;;10.80;99.90;;;;;;5051777;28;20102;-85
2023/06/07 02:10:37;;;;;;;13.45;4.25;;;10.80;99.90;;;;;;5091462;28;20048;-85
2023/06/07 02:13:06;;;;;;;11.68;3.90;;;10.80;99.90;;;;;;5089087;28;20481;-85
2023/06/07 02:15:33;;;;;;;12.95;3.65;;;10.90;99.90;;;;;;5088853;28;20047;-84
2023/06/07 02:18:01;;;;;;;12.45;3.95;;;11.00;99.90;;;;;;5089218;28;20044;-85
2023/06/07 02:20:28;;;;;;;11.38;3.47;;;11.00;99.90;;;;;;5089115;28;20033;-85
2023/06/07 02:22:56;;;;;;;9.05;3.35;;;11.10;99.90;;;;;;5073024;28;20036;-85
2023/06/07 02:25:24;;;;;;;14.27;3.47;;;11.10;99.90;;;;;;5088644;28;20057;-84
2023/06/07 02:27:51;;;;;;;11.13;3.30;;;11.20;99.90;;;;;;5072853;28;20131;-84
2023/06/07 02:30:18;;;;;;;14.95;3.17;;;11.20;99.90;;;;;;5053429;28;20043;-84
2023/06/07 02:32:48;;;;;;;14.35;4.05;;;11.20;99.90;;;;;;5052484;28;20041;-84
2023/06/07 02:35:17;;;;;;;18.95;4.30;;;11.30;99.90;;;;;;5053682;28;20098;-84
2023/06/07 02:37:45;;;;;;;16.70;3.35;;;11.30;99.90;;;;;;5052638;28;20090;-84
2023/06/07 02:40:13;;;;;;;21.25;3.42;;;11.30;99.90;;;;;;5068981;28;20884;-85
2023/06/07 02:42:44;;;;;;;14.15;3.22;;;11.30;99.90;;;;;;5052863;28;20041;-84
2023/06/07 02:45:15;;;;;;;12.75;3.70;;;11.40;99.90;;;;;;5036828;28;20083;-84
2023/06/07 02:47:42;;;;;;;9.35;3.17;;;11.40;99.90;;;;;;5068909;28;20506;-84
2023/06/07 02:50:09;;;;;;;14.95;3.70;;;11.40;99.90;;;;;;5081909;28;20036;-85
2023/06/07 02:52:37;;;;;;;10.48;2.72;;;11.40;99.90;;;;;;5089312;28;20115;-84
2023/06/07 02:55:04;;;;;;;12.68;3.58;;;11.40;99.90;;;;;;5072990;28;20505;-84
2023/06/07 02:57:30;;;;;;;10.68;3.65;;;11.50;99.90;;;;;;5055657;28;20079;-84
2023/06/07 02:59:58;;;;;;;12.55;3.47;;;11.50;99.90;;;;;;5048177;28;20080;-85
2023/06/07 03:02:25;;;;;;;13.50;3.03;;;11.50;99.90;;;;;;5036154;28;20558;-84
2023/06/07 03:04:52;;;;;;;10.48;3.13;;;11.50;99.90;;;;;;5052669;28;20063;-84
2023/06/07 03:07:20;;;;;;;13.95;3.25;;;11.50;99.90;;;;;;5051795;28;20553;-84
2023/06/07 03:09:47;;;;;;;14.10;3.90;;;11.50;99.90;;;;;;5068797;28;20772;-85
2023/06/07 03:12:14;;;;;;;15.52;3.63;;;11.50;99.90;;;;;;5070803;28;20033;-85
2023/06/07 03:14:42;;;;;;;14.55;3.47;;;11.50;99.90;;;;;;5056042;28;20048;-85
2023/06/07 03:17:09;;;;;;;16.70;3.55;;;11.50;99.90;;;;;;5056828;28;20103;-86
2023/06/07 03:19:35;;;;;;;8.48;3.42;;;11.50;99.90;;;;;;5039770;28;20485;-85
2023/06/07 03:22:06;;;;;;;15.27;4.07;;;11.50;99.90;;;;;;5057535;28;20505;-85
2023/06/07 03:24:34;;;;;;;16.23;3.55;;;11.50;99.90;;;;;;5076404;28;20059;-85
2023/06/07 03:27:01;;;;;;;10.13;3.28;;;11.60;99.90;;;;;;5075496;28;20044;-86
2023/06/07 03:29:29;;;;;;;13.02;3.30;;;11.60;99.90;;;;;;5059460;28;20071;-85
2023/06/07 03:31:56;;;;;;;11.90;3.13;;;11.60;99.90;;;;;;5062578;28;20033;-85
2023/06/07 03:34:23;;;;;;;11.65;2.90;;;11.60;99.90;;;;;;5072524;28;20470;-85
2023/06/07 03:36:50;;;;;;;8.27;2.97;;;11.60;99.90;;;;;;5055637;28;20114;-85
2023/06/07 03:39:16;;;;;;;9.18;3.05;;;11.60;99.90;;;;;;5039207;28;20045;-85
2023/06/07 03:41:43;;;;;;;16.50;3.75;;;11.60;99.90;;;;;;5048478;28;20068;-85
2023/06/07 03:44:11;;;;;;;9.75;2.97;;;11.60;99.90;;;;;;5058879;28;20049;-85
2023/06/07 03:46:38;;;;;;;11.27;3.03;;;11.60;99.90;;;;;;5091317;28;20080;-85
2023/06/07 03:49:05;;;;;;;13.50;3.20;;;11.60;99.90;;;;;;5075344;28;20080;-85
2023/06/07 03:51:37;;;;;;;11.27;2.75;;;11.60;99.90;;;;;;5058613;28;20124;-85
2023/06/07 03:54:03;;;;;;;11.23;3.03;;;11.60;99.90;;;;;;5060379;28;20106;-85
2023/06/07 03:56:30;;;;;;;12.50;3.03;;;11.60;99.90;;;;;;5075098;28;20040;-85
2023/06/07 03:59:01;;;;;;;10.13;2.58;;;11.60;99.90;;;;;;5092086;28;20040;-85
2023/06/07 04:01:28;;;;;;;10.48;3.00;;;11.70;99.90;;;;;;5058047;28;20052;-85
2023/06/07 04:03:55;;;;;;;13.65;3.20;;;11.70;99.90;;;;;;5055256;28;20037;-86
2023/06/07 04:06:24;;;;;;;15.00;3.08;;;11.80;99.90;;;;;;5055245;28;20037;-86
2023/06/07 04:08:56;;;;;;;15.07;3.05;;;11.70;99.90;;;;;;5038671;28;20047;-85
2023/06/07 04:11:26;;;;;;;13.10;2.90;;;11.80;99.90;;;;;;5072316;28;20045;-85
2023/06/07 04:13:53;;;;;;;11.77;3.60;;;11.80;99.90;;;;;;5071488;28;20051;-86
2023/06/07 04:16:19;;;;;;;8.93;2.58;;;11.80;99.90;;;;;;5038523;28;20040;-85
2023/06/07 04:18:46;;;;;;;11.15;2.72;;;11.80;99.90;;;;;;5038437;28;20087;-85
2023/06/07 04:21:13;;;;;;;8.07;3.00;;;11.80;99.90;;;;;;5071004;28;20040;-85
2023/06/07 04:23:41;;;;;;;9.35;2.83;;;11.90;99.90;;;;;;5053787;28;20051;-85
2023/06/07 04:26:08;;;;;;;12.48;4.15;;;11.90;99.90;;;;;;5038677;28;20044;-86
2023/06/07 04:28:35;;;;;;;11.80;2.70;;;11.90;99.90;;;;;;5054609;28;20456;-85
2023/06/07 04:31:02;;;;;;;10.77;3.10;;;12.00;99.90;;;;;;5054808;28;20123;-85
2023/06/07 04:33:29;;;;;;;12.48;2.63;;;11.90;99.90;;;;;;5054402;28;20125;-85
2023/06/07 04:35:58;;;;;;;9.27;2.53;;;11.90;99.90;;;;;;5037719;28;20086;-85
2023/06/07 04:38:25;;;;;;;8.82;2.25;;;11.80;99.90;;;;;;5055186;28;20485;-86
2023/06/07 04:40:53;;;;;;;8.98;2.28;;;11.80;99.90;;;;;;5054031;28;20052;-85
2023/06/07 04:43:20;;;;;;;15.90;3.15;;;11.80;99.90;;;;;;5074586;28;20033;-85
2023/06/07 04:45:53;;;;;;;9.70;2.53;;;11.80;99.90;;;;;;5090749;28;20040;-85
2023/06/07 04:48:25;;;;;;;10.32;2.85;;;11.80;99.90;;;;;;5074715;28;20055;-85
2023/06/07 04:50:56;;;;;;;10.27;2.75;;;11.80;99.90;;;;;;5090389;28;20075;-85
2023/06/07 04:53:23;;;;;;;11.98;2.90;;;11.80;99.90;;;;;;5090723;28;20036;-85
2023/06/07 04:55:50;;;;;;;12.45;3.40;;;11.90;99.90;;;;;;5057513;28;20108;-85
2023/06/07 04:58:18;;;;;;;16.98;4.43;;;11.90;99.90;;;;;;5057637;28;20485;-85
2023/06/07 05:00:45;;;;;;;13.50;3.17;;;11.90;99.90;;;;;;5090540;28;20075;-85
2023/06/07 05:03:21;;;;;;;10.30;3.08;;;12.00;99.90;;;;;;5057637;28;20040;-85
2023/06/07 05:05:48;;;;;;;;;;;12.10;99.90;;;;;;5072876;28;20170;-85
2023/06/07 05:08:16;;;;;;;9.70;2.92;;;12.20;99.90;;;;;;5069997;28;20015;-85
2023/06/07 05:10:43;;;;;;;11.85;3.05;;;12.20;99.90;;;;;;5053539;28;20405;-85
2023/06/07 05:13:10;;;;;;;12.55;2.83;;;12.20;99.90;;;;;;5054229;28;20036;-85
2023/06/07 05:15:37;;;;;;;14.35;2.67;;;12.20;99.90;;;;;;5069651;28;20037;-85
2023/06/07 05:18:05;;;;;;;12.38;3.33;;;12.30;99.90;;;;;;5089136;28;20125;-85
2023/06/07 05:20:32;;;;;;;11.10;3.00;;;12.30;99.90;;;;;;5057237;28;20044;-86
2023/06/07 05:22:59;;;;;;;12.35;3.03;;;12.20;99.90;;;;;;5072982;28;20401;-85
2023/06/07 05:25:26;;;;;;;17.30;3.28;;;12.30;99.90;;;;;;5073132;28;20062;-85
2023/06/07 05:27:58;;;;;;;10.55;3.15;;;12.30;99.90;;;;;;5056442;28;20389;-85
2023/06/07 05:30:25;;;;;;;12.52;3.10;;;12.30;99.90;;;;;;5069880;28;20037;-85
2023/06/07 05:32:52;;;;;;;11.35;3.65;;;12.30;99.90;;;;;;5036453;28;20037;-85
2023/06/07 05:35:19;;;;;;;16.75;3.50;;;12.30;99.90;;;;;;5069017;28;20080;-85
2023/06/07 05:37:46;;;;;;;13.07;3.53;;;12.40;99.90;;;;;;5036440;28;20497;-85
2023/06/07 05:40:16;;;;;;;12.20;3.22;;;12.40;99.90;;;;;;5053019;28;20447;-85
2023/06/07 05:42:42;;;;;;;13.93;3.25;;;12.50;99.90;;;;;;5053625;28;20507;-85
2023/06/07 05:45:09;;;;;;;9.80;2.85;;;12.50;99.90;;;;;;5060345;28;20041;-85
2023/06/07 05:47:36;;;;;;;9.32;3.28;;;12.60;99.90;;;;;;5036928;28;20052;-85
2023/06/07 05:50:04;;;;;;;6.05;2.60;;;12.60;99.90;;;;;;5046655;28;20029;-85
2023/06/07 05:52:31;;;;;;;11.68;3.60;;;12.70;99.90;;;;;;5073624;28;20119;-85
2023/06/07 05:54:58;;;;;;;10.45;2.47;;;12.70;99.90;;;;;;5056483;28;20127;-85
2023/06/07 05:57:25;;;;;;;13.48;3.00;;;12.80;99.90;;;;;;5056922;28;20489;-85
2023/06/07 05:59:52;;;;;;;9.30;2.60;;;12.80;99.90;;;;;;5049753;28;20046;-85
2023/06/07 06:02:20;;;;;;;10.60;2.50;;;12.80;99.90;;;;;;5070050;28;20509;-85
2023/06/07 06:04:47;;;;;;;14.50;2.72;;;12.90;99.90;;;;;;5036803;28;20041;-85
2023/06/07 06:07:15;;;;;;;8.70;2.50;;;13.00;99.90;;;;;;5069558;28;20041;-85
2023/06/07 06:09:42;;;;;;;11.35;2.67;;;13.00;99.90;;;;;;5054552;28;20037;-85
2023/06/07 06:12:09;;;;;;;10.23;2.53;;;13.00;99.90;;;;;;5052934;28;20052;-86
2023/06/07 06:14:37;;;;;;;10.70;2.88;;;13.10;99.90;;;;;;5036841;28;20037;-85
2023/06/07 06:17:05;;;;;;;14.02;2.90;;;13.00;99.90;;;;;;5052768;28;20037;-85
2023/06/07 06:19:32;;;;;;;12.80;3.72;;;13.10;99.90;;;;;;5052891;28;20473;-85
2023/06/07 06:21:59;;;;;;;11.07;3.00;;;13.00;99.90;;;;;;5036216;28;20048;-85
2023/06/07 06:24:25;;;;;;;8.43;2.50;;;13.00;99.90;;;;;;5036191;28;20061;-85
2023/06/07 06:26:52;;;;;;;10.00;2.60;;;13.00;99.90;;;;;;5036396;28;20056;-85
2023/06/07 06:29:19;;;;;;;12.60;2.78;;;13.20;99.90;;;;;;5068945;28;20041;-85
2023/06/07 06:31:46;;;;;;;12.40;2.53;;;13.30;99.90;;;;;;5054051;28;20037;-85
2023/06/07 06:34:13;;;;;;;11.07;2.78;;;13.30;99.90;;;;;;5045207;28;20043;-85
2023/06/07 06:36:39;;;;;;;10.65;2.40;;;13.50;99.90;;;;;;5072283;28;20036;-85
2023/06/07 06:39:08;;;;;;;8.93;2.55;;;13.70;99.90;;;;;;5059949;28;20045;-85
2023/06/07 06:41:35;;;;;;;7.95;2.63;;;13.90;99.90;;;;;;5055645;28;20068;-85
2023/06/07 06:44:01;;;;;;;8.45;2.53;;;13.90;99.90;;;;;;5052473;28;20802;-85
2023/06/07 06:46:28;;;;;;;11.93;2.72;;;14.00;99.90;;;;;;5060739;28;20079;-84
2023/06/07 06:48:55;;;;;;;10.27;2.70;;;14.00;99.90;;;;;;5042225;28;20044;-86
2023/06/07 06:51:22;;;;;;;7.60;2.60;;;13.90;99.90;;;;;;5056652;28;20135;-85
2023/06/07 06:53:49;;;;;;;10.27;2.90;;;13.70;99.90;;;;;;5056368;28;20540;-85
2023/06/07 06:56:15;;;;;;;12.13;2.70;;;13.60;99.90;;;;;;5044274;28;20469;-85
2023/06/07 06:58:42;;;;;;;9.43;2.65;;;13.60;99.90;;;;;;5076296;28;20041;-85
2023/06/07 07:01:16;;;;;;;10.52;3.13;;;13.50;99.90;;;;;;5059611;28;20044;-86
2023/06/07 07:03:43;;;;;;;13.60;2.70;;;13.50;99.90;;;;;;5109187;28;20140;-85
2023/06/07 07:06:10;;;;;;;8.52;2.90;;;13.50;99.90;;;;;;5091983;28;20086;-85
2023/06/07 07:08:37;;;;;;;11.75;2.78;;;13.50;99.90;;;;;;5075882;28;20047;-85
2023/06/07 07:11:03;;;;;;;9.57;2.40;;;13.60;99.90;;;;;;5075815;28;20036;-85
2023/06/07 07:13:30;;;;;;;12.05;3.17;;;13.60;99.90;;;;;;5075378;28;20489;-84
2023/06/07 07:15:58;;;;;;;10.73;3.28;;;13.60;99.90;;;;;;5091683;28;20036;-84
2023/06/07 07:18:25;;;;;;;9.38;2.53;;;13.80;99.90;;;;;;5109079;28;20043;-86
2023/06/07 07:20:51;;;;;;;8.30;2.63;;;14.00;99.90;;;;;;5092181;28;20036;-83
2023/06/07 07:23:18;;;;;;;9.45;2.80;;;14.10;99.90;;;;;;5108647;28;20051;-83
2023/06/07 07:25:44;;;;;;;8.82;3.03;;;14.20;99.90;;;;;;5075184;28;20083;-84
2023/06/07 07:28:11;;;;;;;8.10;2.60;;;14.30;99.90;;;;;;5091314;28;20048;-85
2023/06/07 07:30:38;;;;;;;8.43;3.10;;;14.50;99.90;;;;;;5041400;28;20563;-86
2023/06/07 07:33:05;;;;;;;9.98;2.50;;;14.60;99.90;;;;;;5038827;28;20573;-84
2023/06/07 07:35:31;;;;;;;9.93;2.70;;;14.70;99.90;;;;;;5072034;28;20555;-85
2023/06/07 07:38:01;;;;;;;10.80;3.05;;;14.80;99.90;;;;;;5038496;28;20088;-84
2023/06/07 07:40:28;;;;;;;11.68;2.80;;;14.90;99.90;;;;;;5039708;28;20080;-85
2023/06/07 07:42:55;;;;;;;14.25;2.97;;;15.00;99.90;;;;;;5067421;28;20044;-85
2023/06/07 07:45:21;;;;;;;9.43;2.67;;;15.20;99.90;;;;;;5074646;28;20052;-83
2023/06/07 07:47:48;;;;;;;10.75;2.63;;;15.30;99.90;;;;;;5071517;28;20041;-81
2023/06/07 07:50:16;;;;;;;9.30;2.88;;;15.30;99.90;;;;;;5046546;28;20029;-84
2023/06/07 07:52:42;;;;;;;10.80;2.95;;;15.30;99.90;;;;;;5081353;28;20079;-84
2023/06/07 07:55:10;;;;;;;10.30;3.20;;;15.40;99.90;;;;;;5049426;28;20071;-84
2023/06/07 07:57:36;;;;;;;11.88;2.67;;;15.50;99.90;;;;;;5064896;28;20033;-84
2023/06/07 08:00:05;;;;;;;10.98;3.00;;;15.50;99.90;;;;;;5054515;28;20143;-84
2023/06/07 08:02:32;;;;;;;12.30;2.85;;;15.60;99.90;;;;;;5075024;28;20055;-85
2023/06/07 08:04:59;;;;;;;12.63;3.00;;;15.60;99.90;;;;;;5074731;28;20044;-85
2023/06/07 08:07:25;;;;;;;9.68;3.10;;;15.60;99.90;;;;;;5074502;28;20072;-82
2023/06/07 08:09:52;;;;;;;9.10;3.40;;;15.60;99.90;;;;;;5057877;28;20052;-85
2023/06/07 08:12:19;;;;;;;13.30;3.90;;;15.70;99.90;;;;;;5071675;28;20041;-85
2023/06/07 08:14:46;;;;;;;8.30;3.20;;;15.80;99.90;;;;;;5074818;28;20048;-84
2023/06/07 08:17:13;;;;;;;9.73;2.72;;;15.90;99.90;;;;;;5074626;28;20737;-84
2023/06/07 08:19:40;;;;;;;6.68;2.67;;;15.90;99.90;;;;;;5060683;28;20114;-84
2023/06/07 08:22:06;;;;;;;8.70;2.80;;;16.10;99.90;;;;;;5073968;28;20097;-84
2023/06/07 08:24:33;;;;;;;8.27;2.47;;;16.20;99.90;;;;;;5041692;28;20060;-84
2023/06/07 08:27:00;;;;;;;5.88;2.20;;;16.20;99.90;;;;;;5054541;28;20059;-85
2023/06/07 08:29:26;;;;;;;10.10;2.80;;;16.30;99.90;;;;;;5070851;28;20787;-85
2023/06/07 08:31:53;;;;;;;8.88;2.53;;;16.30;99.90;;;;;;5038194;28;20033;-85
2023/06/07 08:34:27;;;;;;;8.40;2.67;;;16.40;99.90;;;;;;5054182;28;20041;-84
2023/06/07 08:36:54;;;;;;;9.30;2.63;;;16.50;99.90;;;;;;5055492;28;20500;-84
2023/06/07 08:39:22;;;;;;;8.77;2.83;;;16.60;99.90;;;;;;5090335;28;20039;-84
2023/06/07 08:41:50;;;;;;;9.25;3.08;;;16.70;99.90;;;;;;5074329;28;20071;-84
2023/06/07 08:44:16;;;;;;;9.75;2.83;;;16.80;99.90;;;;;;5073661;28;20040;-84
2023/06/07 08:46:46;;;;;;;10.98;2.70;;;16.90;99.90;;;;;;5090437;28;20090;-85
2023/06/07 08:49:13;;;;;;;10.55;3.10;;;16.90;99.90;;;;;;5070643;28;20040;-84
2023/06/07 08:51:42;;;;;;;7.97;2.88;;;17.00;99.90;;;;;;5053774;28;20051;-85
2023/06/07 08:54:10;;;;;;;7.90;2.70;;;17.10;99.90;;;;;;5069979;28;20094;-84
2023/06/07 08:56:38;;;;;;;13.90;3.17;;;17.10;99.90;;;;;;5070481;28;20037;-85
2023/06/07 08:59:05;;;;;;;7.25;2.90;;;17.20;99.90;;;;;;5086905;28;20056;-84
2023/06/07 09:01:36;;;;;;;14.57;2.90;;;17.20;99.90;;;;;;5069967;28;20506;-85
2023/06/07 09:04:02;;;;;;;11.57;3.25;;;17.30;99.90;;;;;;5070574;28;20072;-85
2023/06/07 09:06:29;;;;;;;10.68;3.13;;;17.30;99.90;;;;;;5070259;28;20076;-82
2023/06/07 09:08:56;;;;;;;8.13;3.00;;;17.40;99.90;;;;;;5069927;28;20045;-84
2023/06/07 09:11:23;;;;;;;7.90;3.00;;;17.50;99.90;;;;;;5069520;28;20105;-84
2023/06/07 09:13:50;;;;;;;12.00;2.80;;;17.60;99.90;;;;;;5053668;28;20529;-85
2023/06/07 09:16:19;;;;;;;13.60;2.95;;;17.70;99.90;;;;;;5069791;28;20037;-84
2023/06/07 09:18:53;;;;;;;10.55;2.83;;;17.80;99.90;;;;;;5062619;28;20067;-83
2023/06/07 09:21:27;;;;;;;8.38;2.30;;;17.80;99.90;;;;;;5081356;28;20124;-83
2023/06/07 09:23:57;;;;;;;8.40;3.00;;;18.00;99.90;;;;;;5069804;28;20386;-83
2023/06/07 09:26:38;;;;;;;10.88;2.78;;;18.10;99.90;;;;;;5081292;28;20049;-84
2023/06/07 09:29:06;;;;;;;9.23;3.30;;;18.30;99.90;;;;;;5079662;28;20071;-83
2023/06/07 09:31:34;;;;;;;11.05;3.35;;;18.30;99.90;;;;;;5077332;28;20484;-82
2023/06/07 09:34:20;;;;;;;11.52;3.20;;;18.30;99.90;;;;;;5041104;28;20029;-84
2023/06/07 09:36:50;;;;;;;7.95;2.47;;;18.40;99.90;;;;;;5086106;28;20444;-85
2023/06/07 09:39:22;;;;;;;12.48;3.13;;;18.40;99.90;;;;;;5083430;28;20045;-84
2023/06/07 09:41:50;;;;;;;8.02;2.67;;;18.50;99.90;;;;;;5072985;28;20493;-84
2023/06/07 09:44:35;;;;;;;10.50;3.15;;;18.60;99.90;;;;;;5072485;28;20040;-84
2023/06/07 09:47:02;;;;;;;9.40;2.70;;;18.70;99.90;;;;;;5084137;28;20037;-84
2023/06/07 09:49:34;;;;;;;9.07;2.85;;;18.80;99.90;;;;;;5052865;28;20044;-84
2023/06/07 09:52:11;;;;;;;8.10;2.78;;;18.80;99.90;;;;;;5076019;28;20067;-84
2023/06/07 09:54:39;;;;;;;9.85;2.90;;;18.80;99.90;;;;;;5091291;28;20563;-84
2023/06/07 09:57:08;;;;;;;8.98;3.08;;;18.70;99.90;;;;;;5069423;28;20049;-85
2023/06/07 09:59:39;;;;;;;11.90;3.22;;;18.80;99.90;;;;;;5068797;28;20045;-85
2023/06/07 10:02:26;;;;;;;10.30;2.67;;;19.00;99.90;;;;;;5082741;28;20036;-84
2023/06/07 10:04:55;;;;;;;7.55;2.75;;;19.00;99.90;;;;;;5072794;28;20036;-85
2023/06/07 10:07:24;;;;;;;8.50;3.00;;;19.00;99.90;;;;;;5088332;28;20040;-84
2023/06/07 10:09:53;;;;;;;9.98;2.95;;;19.00;99.90;;;;;;5053383;28;20036;-84
2023/06/07 10:12:22;;;;;;;10.82;3.30;;;19.10;99.90;;;;;;5103215;28;20145;-84
2023/06/07 10:14:51;;;;;;;13.60;2.97;;;19.10;99.90;;;;;;5068754;28;20079;-84
2023/06/07 10:17:20;;;;;;;7.55;2.67;;;19.20;99.90;;;;;;5104990;28;20044;-83
2023/06/07 10:19:51;;;;;;;10.93;3.05;;;19.10;99.90;;;;;;5067207;28;20528;-84
2023/06/07 10:22:26;;;;;;;13.32;2.80;;;19.20;99.90;;;;;;5073277;28;20045;-82
2023/06/07 10:25:16;;;;;;;6.70;2.65;;;19.10;99.90;;;;;;5090014;28;20110;-83
2023/06/07 10:27:43;;;;;;;8.75;2.60;;;19.40;99.90;;;;;;5090499;28;20033;-83
2023/06/07 10:30:12;;;;;;;10.73;3.03;;;19.50;99.90;;;;;;5085767;28;20093;-82
2023/06/07 10:32:39;;;;;;;10.20;2.75;;;19.70;99.90;;;;;;5101239;28;20040;-83
2023/06/07 10:35:11;;;;;;;11.85;3.15;;;19.80;99.90;;;;;;5087869;28;20037;-83
2023/06/07 10:37:40;;;;;;;9.15;3.40;;;19.80;99.90;;;;;;5092567;28;20040;-84
2023/06/07 10:40:10;;;;;;;7.95;3.20;;;19.80;99.90;;;;;;5066065;28;20114;-84
2023/06/07 10:42:43;;;;;;;8.15;3.10;;;19.90;99.90;;;;;;5048293;28;20428;-85
2023/06/07 10:45:18;;;;;;;10.32;3.30;;;19.90;99.90;;;;;;5088641;28;20048;-83
2023/06/07 10:47:47;;;;;;;10.68;2.70;;;19.90;99.90;;;;;;5065021;28;20037;-83
2023/06/07 10:50:47;;;;;;;8.10;3.03;;;20.00;99.90;;;;;;5092970;28;20040;-83
2023/06/07 10:53:16;;;;;;;10.55;3.05;;;20.10;99.90;;;;;;5070143;28;20045;-84
2023/06/07 10:55:43;;;;;;;10.25;3.22;;;20.10;99.90;;;;;;5039882;28;20040;-84
2023/06/07 10:58:29;;;;;;;10.38;2.80;;;20.10;99.90;;;;;;5042325;28;20040;-83
2023/06/07 11:00:57;;;;;;;9.10;2.92;;;20.30;99.90;;;;;;5075092;28;20040;-83
2023/06/07 11:03:23;;;;;;;10.48;3.42;;;20.30;99.90;;;;;;5065741;28;20139;-84
2023/06/07 11:05:53;;;;;;;12.90;3.20;;;20.40;99.90;;;;;;5100816;28;20072;-84
2023/06/07 11:08:31;;;;;;;8.15;2.78;;;20.40;99.90;;;;;;5072033;28;20045;-83
2023/06/07 11:11:00;;;;;;;9.23;3.17;;;20.40;99.90;;;;;;5070523;28;20033;-83
2023/06/07 11:13:53;;;;;;;9.63;3.33;;;20.40;99.90;;;;;;5096245;28;20489;-84
2023/06/07 11:16:22;;;;;;;9.75;3.60;;;20.40;99.90;;;;;;5097968;28;20037;-84
2023/06/07 11:19:07;;;;;;;11.25;3.35;;;20.50;99.90;;;;;;5091761;28;20079;-85
2023/06/07 11:21:55;;;;;;;10.10;3.35;;;20.50;99.90;;;;;;5106606;28;20059;-83
2023/06/07 11:24:22;;;;;;;10.55;3.55;;;20.40;99.90;;;;;;5091483;28;20052;-84
2023/06/07 11:26:52;;;;;;;10.07;3.20;;;20.40;99.90;;;;;;5069730;28;20047;-84
2023/06/07 11:29:20;;;;;;;10.82;3.22;;;20.50;99.90;;;;;;5061642;28;20120;-83
2023/06/07 11:32:01;;;;;;;9.15;3.22;;;20.60;99.90;;;;;;5085511;28;20029;-83
2023/06/07 11:34:30;;;;;;;12.82;3.33;;;20.60;99.90;;;;;;5087141;28;20033;-83
2023/06/07 11:37:10;;;;;;;13.60;3.20;;;20.60;99.90;;;;;;5071456;28;20401;-82
2023/06/07 11:39:38;;;;;;;7.47;2.75;;;20.70;99.90;;;;;;5081906;28;20045;-79
2023/06/07 11:42:05;;;;;;;9.07;3.20;;;20.70;99.90;;;;;;5062672;28;20505;-81
2023/06/07 11:44:37;;;;;;;8.85;3.53;;;20.50;99.90;;;;;;5055327;28;20124;-81
2023/06/07 11:47:07;;;;;;;8.18;3.30;;;20.50;99.90;;;;;;5074112;28;20037;-82
2023/06/07 11:49:35;;;;;;;10.00;3.53;;;20.50;99.90;;;;;;5074835;28;20040;-82
2023/06/07 11:52:02;;;;;;;10.30;3.70;;;20.40;99.90;;;;;;5075280;28;20120;-82
2023/06/07 11:54:29;;;;;;;11.10;3.63;;;20.30;99.90;;;;;;5073164;28;20127;-82
2023/06/07 11:56:58;;;;;;;12.40;3.85;;;20.20;99.90;;;;;;5071027;28;20041;-82
2023/06/07 11:59:26;;;;;;;7.78;3.38;;;20.30;99.90;;;;;;5087633;28;20444;-82
2023/06/07 12:01:53;;;;;;;9.32;3.63;;;20.30;99.90;;;;;;5054580;28;20048;-82
2023/06/07 12:04:22;;;;;;;11.88;3.60;;;20.20;99.90;;;;;;5071127;28;20051;-82
2023/06/07 12:06:49;;;;;;;8.40;3.25;;;20.40;99.90;;;;;;5084841;28;20051;-82
2023/06/07 12:09:18;;;;;;;13.18;3.35;;;20.40;99.90;;;;;;5087612;28;20068;-82
2023/06/07 12:11:46;;;;;;;10.27;3.50;;;20.40;99.90;;;;;;5087069;28;20040;-82
2023/06/07 12:14:29;;;;;;;9.27;3.10;;;20.40;99.90;;;;;;5087585;28;20405;-82
2023/06/07 12:16:58;;;;;;;14.93;3.70;;;20.20;99.90;;;;;;5070501;28;20477;-82
2023/06/07 12:19:24;;;;;;;7.30;3.03;;;20.20;99.90;;;;;;5087728;28;20103;-82
2023/06/07 12:21:52;;;;;;;12.00;3.45;;;20.00;99.90;;;;;;5070477;28;20077;-82
2023/06/07 12:24:19;;;;;;;12.02;3.58;;;20.10;99.90;;;;;;5054287;28;20080;-82
2023/06/07 12:26:46;;;;;;;9.30;3.60;;;20.10;99.90;;;;;;5076713;28;20040;-82
2023/06/07 12:29:12;;;;;;;10.32;3.40;;;20.20;99.90;;;;;;5053843;28;20486;-83
2023/06/07 12:31:42;;;;;;;10.73;3.75;;;20.20;99.90;;;;;;5066955;28;20112;-82
2023/06/07 12:34:09;;;;;;;9.20;3.33;;;20.30;99.90;;;;;;5052638;28;20040;-83
2023/06/07 12:36:38;;;;;;;9.75;3.42;;;20.20;99.90;;;;;;5061413;28;20064;-83
2023/06/07 12:39:06;;;;;;;10.82;3.60;;;20.10;99.90;;;;;;5088954;28;20037;-83
2023/06/07 12:41:33;;;;;;;9.23;3.10;;;20.10;99.90;;;;;;5073757;28;20049;-83
2023/06/07 12:44:03;;;;;;;10.57;3.63;;;20.20;99.90;;;;;;5090099;28;20253;-83
2023/06/07 12:46:30;;;;;;;12.15;3.50;;;20.10;99.90;;;;;;5090057;28;20052;-86
2023/06/07 12:48:57;;;;;;;12.73;3.63;;;20.00;99.90;;;;;;5073402;28;20051;-90